sensor_id;sensor_type;location;lat;lon;timestamp;pressure;altitude;pressure_sealevel;temperature;humidity
19150;BME280;9707;49.158;8.632;2023-02-22T00:00:22;100326.59;;;18.75;33.21
19150;BME280;9707;49.158;8.632;2023-02-22T00:02:53;100320.34;;;18.75;33.23
19150;BME280;9707;49.158;8.632;2023-02-22T00:05:24;100323.03;;;18.75;33.04
19150;BME280;9707;49.158;8.632;2023-02-22T00:07:50;100321.31;;;18.74;33.06
19150;BME280;9707;49.158;8.632;2023-02-22T00:10:16;100323.16;;;18.73;33.00
19150;BME280;9707;49.158;8.632;2023-02-22T00:12:47;100322.28;;;18.73;33.60
19150;BME280;9707;49.158;8.632;2023-02-22T00:15:15;100317.66;;;18.75;33.58
19150;BME280;9707;49.158;8.632;2023-02-22T00:17:40;100323.78;;;18.77;33.34
19150;BME280;9707;49.158;8.632;2023-02-22T00:20:07;100321.09;;;18.77;33.16
19150;BME280;9707;49.158;8.632;2023-02-22T00:22:34;100312.16;;;18.76;33.75
19150;BME280;9707;49.158;8.632;2023-02-22T00:24:59;100303.91;;;18.78;34.77
19150;BME280;9707;49.158;8.632;2023-02-22T00:27:25;100300.00;;;18.82;34.60
19150;BME280;9707;49.158;8.632;2023-02-22T00:29:50;100297.00;;;18.86;34.55
19150;BME280;9707;49.158;8.632;2023-02-22T00:32:17;100293.22;;;18.89;34.55
19150;BME280;9707;49.158;8.632;2023-02-22T00:34:43;100290.25;;;18.92;34.99
19150;BME280;9707;49.158;8.632;2023-02-22T00:37:11;100284.53;;;18.96;34.90
19150;BME280;9707;49.158;8.632;2023-02-22T00:39:36;100284.19;;;19.01;35.06
19150;BME280;9707;49.158;8.632;2023-02-22T00:42:02;100287.50;;;19.04;35.19
19150;BME280;9707;49.158;8.632;2023-02-22T00:44:28;100295.41;;;19.07;35.16
19150;BME280;9707;49.158;8.632;2023-02-22T00:46:53;100288.91;;;19.10;34.79
19150;BME280;9707;49.158;8.632;2023-02-22T00:49:18;100286.19;;;19.10;35.12
19150;BME280;9707;49.158;8.632;2023-02-22T00:51:43;100285.09;;;19.12;35.12
19150;BME280;9707;49.158;8.632;2023-02-22T00:54:09;100292.13;;;19.15;35.27
19150;BME280;9707;49.158;8.632;2023-02-22T00:56:35;100287.44;;;19.17;35.22
19150;BME280;9707;49.158;8.632;2023-02-22T00:59:02;100281.06;;;19.18;35.37
19150;BME280;9707;49.158;8.632;2023-02-22T01:01:27;100289.94;;;19.20;35.25
19150;BME280;9707;49.158;8.632;2023-02-22T01:03:53;100283.47;;;19.22;35.41
19150;BME280;9707;49.158;8.632;2023-02-22T01:06:19;100277.94;;;19.24;35.32
19150;BME280;9707;49.158;8.632;2023-02-22T01:08:45;100276.00;;;19.26;35.27
19150;BME280;9707;49.158;8.632;2023-02-22T01:11:11;100277.72;;;19.27;35.49
19150;BME280;9707;49.158;8.632;2023-02-22T01:13:37;100266.81;;;19.28;35.57
19150;BME280;9707;49.158;8.632;2023-02-22T01:16:03;100266.81;;;19.28;35.21
19150;BME280;9707;49.158;8.632;2023-02-22T01:18:33;100265.69;;;19.31;35.61
19150;BME280;9707;49.158;8.632;2023-02-22T01:20:59;100256.63;;;19.32;35.63
19150;BME280;9707;49.158;8.632;2023-02-22T01:23:26;100252.94;;;19.33;35.53
19150;BME280;9707;49.158;8.632;2023-02-22T01:25:51;100260.03;;;19.34;35.74
19150;BME280;9707;49.158;8.632;2023-02-22T01:28:16;100252.94;;;19.33;35.46
19150;BME280;9707;49.158;8.632;2023-02-22T01:30:41;100258.22;;;19.34;35.58
19150;BME280;9707;49.158;8.632;2023-02-22T01:33:07;100251.84;;;19.35;35.75
19150;BME280;9707;49.158;8.632;2023-02-22T01:35:36;100251.84;;;19.35;35.61
19150;BME280;9707;49.158;8.632;2023-02-22T01:38:05;100255.41;;;19.36;35.54
19150;BME280;9707;49.158;8.632;2023-02-22T01:40:33;100254.41;;;19.37;35.74
19150;BME280;9707;49.158;8.632;2023-02-22T01:43:02;100250.75;;;19.38;35.74
19150;BME280;9707;49.158;8.632;2023-02-22T01:48:21;100246.09;;;19.40;35.64
19150;BME280;9707;49.158;8.632;2023-02-22T01:50:59;100248.91;;;19.38;35.68
19150;BME280;9707;49.158;8.632;2023-02-22T01:53:32;100243.63;;;19.37;35.78
19150;BME280;9707;49.158;8.632;2023-02-22T01:56:00;100241.91;;;19.36;35.52
19150;BME280;9707;49.158;8.632;2023-02-22T01:58:27;100241.91;;;19.36;34.88
19150;BME280;9707;49.158;8.632;2023-02-22T02:00:54;100242.00;;;19.34;35.20
19150;BME280;9707;49.158;8.632;2023-02-22T02:03:24;100235.88;;;19.32;35.12
19150;BME280;9707;49.158;8.632;2023-02-22T02:05:53;100240.41;;;19.32;35.04
19150;BME280;9707;49.158;8.632;2023-02-22T02:08:46;100227.00;;;19.30;35.21
19150;BME280;9707;49.158;8.632;2023-02-22T02:11:19;100232.53;;;19.29;35.28
19150;BME280;9707;49.158;8.632;2023-02-22T02:13:45;100230.81;;;19.28;35.49
19150;BME280;9707;49.158;8.632;2023-02-22T02:16:10;100240.63;;;19.29;35.28
19150;BME280;9707;49.158;8.632;2023-02-22T02:18:36;100231.78;;;19.27;34.61
19150;BME280;9707;49.158;8.632;2023-02-22T02:21:10;100226.50;;;19.25;35.19
19150;BME280;9707;49.158;8.632;2023-02-22T02:34:28;100222.25;;;19.10;33.91
19150;BME280;9707;49.158;8.632;2023-02-22T02:37:09;100222.59;;;19.06;33.85
19150;BME280;9707;49.158;8.632;2023-02-22T02:42:18;100218.53;;;19.00;34.36
19150;BME280;9707;49.158;8.632;2023-02-22T02:44:54;100213.25;;;18.99;34.01
19150;BME280;9707;49.158;8.632;2023-02-22T02:47:24;100211.66;;;18.96;33.86
19150;BME280;9707;49.158;8.632;2023-02-22T02:50:12;100205.59;;;18.93;33.80
19150;BME280;9707;49.158;8.632;2023-02-22T02:52:40;100210.28;;;18.91;33.60
19150;BME280;9707;49.158;8.632;2023-02-22T02:55:07;100212.34;;;18.87;33.77
19150;BME280;9707;49.158;8.632;2023-02-22T02:57:35;100207.94;;;18.86;33.79
19150;BME280;9707;49.158;8.632;2023-02-22T03:00:04;100210.63;;;18.86;34.10
19150;BME280;9707;49.158;8.632;2023-02-22T03:03:00;100201.78;;;18.84;33.74
19150;BME280;9707;49.158;8.632;2023-02-22T03:05:51;100211.72;;;18.84;33.62
19150;BME280;9707;49.158;8.632;2023-02-22T03:08:44;100212.91;;;18.80;33.52
19150;BME280;9707;49.158;8.632;2023-02-22T03:11:19;100215.00;;;18.76;33.68
19150;BME280;9707;49.158;8.632;2023-02-22T03:14:09;100212.41;;;18.75;33.41
19150;BME280;9707;49.158;8.632;2023-02-22T03:19:34;100215.31;;;18.72;33.48
19150;BME280;9707;49.158;8.632;2023-02-22T03:22:21;100209.28;;;18.68;33.50
19150;BME280;9707;49.158;8.632;2023-02-22T03:27:56;100205.97;;;18.65;33.60
19150;BME280;9707;49.158;8.632;2023-02-22T03:30:32;100207.78;;;18.64;33.96
19150;BME280;9707;49.158;8.632;2023-02-22T03:33:03;100198.63;;;18.67;34.40
19150;BME280;9707;49.158;8.632;2023-02-22T03:35:36;100193.13;;;18.68;33.80
19150;BME280;9707;49.158;8.632;2023-02-22T03:38:05;100195.81;;;18.68;33.25
19150;BME280;9707;49.158;8.632;2023-02-22T03:40:36;100196.91;;;18.66;33.03
19150;BME280;9707;49.158;8.632;2023-02-22T03:43:06;100198.88;;;18.64;32.91
19150;BME280;9707;49.158;8.632;2023-02-22T03:45:33;100197.38;;;18.60;32.92
19150;BME280;9707;49.158;8.632;2023-02-22T03:48:05;100196.50;;;18.59;32.96
19150;BME280;9707;49.158;8.632;2023-02-22T03:50:35;100192.19;;;18.57;33.23
19150;BME280;9707;49.158;8.632;2023-02-22T03:53:02;100188.50;;;18.58;33.88
19150;BME280;9707;49.158;8.632;2023-02-22T03:55:28;100189.38;;;18.58;33.50
19150;BME280;9707;49.158;8.632;2023-02-22T03:57:57;100199.28;;;18.58;33.00
19150;BME280;9707;49.158;8.632;2023-02-22T04:00:26;100187.03;;;18.54;32.72
19150;BME280;9707;49.158;8.632;2023-02-22T04:02:51;100190.69;;;18.53;33.09
19150;BME280;9707;49.158;8.632;2023-02-22T04:05:17;100180.03;;;18.51;33.40
19150;BME280;9707;49.158;8.632;2023-02-22T04:07:42;100187.25;;;18.51;33.36
19150;BME280;9707;49.158;8.632;2023-02-22T04:10:09;100190.69;;;18.53;33.25
19150;BME280;9707;49.158;8.632;2023-02-22T04:12:35;100188.13;;;18.51;32.96
19150;BME280;9707;49.158;8.632;2023-02-22T04:15:01;100193.63;;;18.50;33.37
19150;BME280;9707;49.158;8.632;2023-02-22T04:17:27;100191.78;;;18.50;32.91
19150;BME280;9707;49.158;8.632;2023-02-22T04:19:52;100196.44;;;18.48;32.94
19150;BME280;9707;49.158;8.632;2023-02-22T04:22:18;100189.44;;;18.46;32.83
19150;BME280;9707;49.158;8.632;2023-02-22T04:24:43;100196.66;;;18.45;32.96
19150;BME280;9707;49.158;8.632;2023-02-22T04:27:09;100194.09;;;18.44;32.93
19150;BME280;9707;49.158;8.632;2023-02-22T04:29:35;100193.22;;;18.43;34.20
19150;BME280;9707;49.158;8.632;2023-02-22T04:32:00;100193.09;;;18.45;33.58
19150;BME280;9707;49.158;8.632;2023-02-22T04:34:25;100189.44;;;18.46;33.43
19150;BME280;9707;49.158;8.632;2023-02-22T04:36:53;100185.00;;;18.45;33.22
19150;BME280;9707;49.158;8.632;2023-02-22T04:39:18;100188.69;;;18.44;33.13
19150;BME280;9707;49.158;8.632;2023-02-22T04:41:44;100184.25;;;18.43;33.70
19150;BME280;9707;49.158;8.632;2023-02-22T04:44:09;100187.72;;;18.45;34.03
19150;BME280;9707;49.158;8.632;2023-02-22T04:46:34;100186.84;;;18.44;33.48
19150;BME280;9707;49.158;8.632;2023-02-22T04:48:59;100184.13;;;18.44;33.89
19150;BME280;9707;49.158;8.632;2023-02-22T04:51:25;100182.31;;;18.45;33.84
19150;BME280;9707;49.158;8.632;2023-02-22T04:53:50;100182.31;;;18.45;33.34
19150;BME280;9707;49.158;8.632;2023-02-22T04:56:17;100188.69;;;18.44;33.42
19150;BME280;9707;49.158;8.632;2023-02-22T04:58:42;100178.00;;;18.42;33.30
19150;BME280;9707;49.158;8.632;2023-02-22T05:01:07;100183.50;;;18.41;33.79
19150;BME280;9707;49.158;8.632;2023-02-22T05:03:33;100181.78;;;18.40;34.03
19150;BME280;9707;49.158;8.632;2023-02-22T05:05:58;100185.34;;;18.40;33.76
19150;BME280;9707;49.158;8.632;2023-02-22T05:08:23;100180.06;;;18.39;33.92
19150;BME280;9707;49.158;8.632;2023-02-22T05:10:49;100181.78;;;18.40;33.55
19150;BME280;9707;49.158;8.632;2023-02-22T05:13:14;100193.56;;;18.39;32.94
19150;BME280;9707;49.158;8.632;2023-02-22T05:15:39;100183.00;;;18.36;33.09
19150;BME280;9707;49.158;8.632;2023-02-22T05:18:04;100187.66;;;18.34;33.31
19150;BME280;9707;49.158;8.632;2023-02-22T05:20:32;100184.06;;;18.33;33.08
19150;BME280;9707;49.158;8.632;2023-02-22T05:22:59;100183.19;;;18.33;33.66
19150;BME280;9707;49.158;8.632;2023-02-22T05:25:25;100183.19;;;18.33;33.32
19150;BME280;9707;49.158;8.632;2023-02-22T05:27:52;100188.59;;;18.33;33.22
19150;BME280;9707;49.158;8.632;2023-02-22T05:30:20;100177.16;;;18.29;32.82
19150;BME280;9707;49.158;8.632;2023-02-22T05:32:48;100182.69;;;18.28;33.18
19150;BME280;9707;49.158;8.632;2023-02-22T05:35:14;100176.50;;;18.26;33.09
19150;BME280;9707;49.158;8.632;2023-02-22T05:37:39;100180.19;;;18.25;33.29
19150;BME280;9707;49.158;8.632;2023-02-22T05:40:05;100184.72;;;18.24;33.19
19150;BME280;9707;49.158;8.632;2023-02-22T05:42:34;100179.47;;;18.23;33.14
19150;BME280;9707;49.158;8.632;2023-02-22T05:44:59;100182.16;;;18.23;33.12
19150;BME280;9707;49.158;8.632;2023-02-22T05:47:25;100184.06;;;18.21;33.63
19150;BME280;9707;49.158;8.632;2023-02-22T05:49:51;100189.25;;;18.24;34.57
19150;BME280;9707;49.158;8.632;2023-02-22T05:52:16;100181.06;;;18.25;34.06
19150;BME280;9707;49.158;8.632;2023-02-22T05:54:41;100183.63;;;18.27;33.65
19150;BME280;9707;49.158;8.632;2023-02-22T05:57:06;100174.59;;;18.28;35.00
19150;BME280;9707;49.158;8.632;2023-02-22T05:59:34;100182.53;;;18.29;34.22
19150;BME280;9707;49.158;8.632;2023-02-22T06:02:02;100184.38;;;18.29;34.47
19150;BME280;9707;49.158;8.632;2023-02-22T06:04:27;100179.72;;;18.31;34.10
19150;BME280;9707;49.158;8.632;2023-02-22T06:06:52;100186.00;;;18.31;33.63
19150;BME280;9707;49.158;8.632;2023-02-22T06:09:17;100185.13;;;18.31;33.49
19150;BME280;9707;49.158;8.632;2023-02-22T06:11:43;100180.72;;;18.30;33.86
19150;BME280;9707;49.158;8.632;2023-02-22T06:14:08;100183.41;;;18.30;35.36
19150;BME280;9707;49.158;8.632;2023-02-22T06:16:33;100191.19;;;18.34;34.74
19150;BME280;9707;49.158;8.632;2023-02-22T06:18:58;100172.19;;;18.36;35.13
19150;BME280;9707;49.158;8.632;2023-02-22T06:21:26;100188.16;;;18.39;34.76
19150;BME280;9707;49.158;8.632;2023-02-22T06:23:51;100193.56;;;18.39;33.89
19150;BME280;9707;49.158;8.632;2023-02-22T06:26:17;100199.91;;;18.38;33.62
19150;BME280;9707;49.158;8.632;2023-02-22T06:28:43;100198.44;;;18.34;33.50
19150;BME280;9707;49.158;8.632;2023-02-22T06:31:09;100201.31;;;18.31;33.38
19150;BME280;9707;49.158;8.632;2023-02-22T06:33:34;100197.00;;;18.28;33.66
19150;BME280;9707;49.158;8.632;2023-02-22T06:35:59;100205.19;;;18.27;34.24
19150;BME280;9707;49.158;8.632;2023-02-22T06:38:25;100203.38;;;18.27;33.82
19150;BME280;9707;49.158;8.632;2023-02-22T06:40:51;100206.06;;;18.27;33.62
19150;BME280;9707;49.158;8.632;2023-02-22T06:43:20;100206.19;;;18.26;33.34
19150;BME280;9707;49.158;8.632;2023-02-22T06:45:45;100208.97;;;18.24;33.34
19150;BME280;9707;49.158;8.632;2023-02-22T06:48:11;100214.50;;;18.23;33.21
19150;BME280;9707;49.158;8.632;2023-02-22T06:50:37;100212.03;;;18.20;33.49
19150;BME280;9707;49.158;8.632;2023-02-22T06:53:02;100220.09;;;18.20;33.80
19150;BME280;9707;49.158;8.632;2023-02-22T06:55:29;100215.69;;;18.19;33.48
19150;BME280;9707;49.158;8.632;2023-02-22T06:57:56;100223.78;;;18.19;33.35
19150;BME280;9707;49.158;8.632;2023-02-22T07:00:23;100224.75;;;18.18;34.06
19150;BME280;9707;49.158;8.632;2023-02-22T07:02:50;100224.75;;;18.18;33.97
19150;BME280;9707;49.158;8.632;2023-02-22T07:05:17;100220.22;;;18.18;33.25
19150;BME280;9707;49.158;8.632;2023-02-22T07:07:43;100225.72;;;18.17;33.63
19150;BME280;9707;49.158;8.632;2023-02-22T07:10:22;100228.41;;;18.17;34.07
19150;BME280;9707;49.158;8.632;2023-02-22T07:12:47;100221.28;;;18.16;32.73
19150;BME280;9707;49.158;8.632;2023-02-22T07:15:14;100227.13;;;18.10;32.26
19150;BME280;9707;49.158;8.632;2023-02-22T07:17:39;100229.41;;;18.03;32.30
19150;BME280;9707;49.158;8.632;2023-02-22T07:20:06;100233.53;;;17.96;32.37
19150;BME280;9707;49.158;8.632;2023-02-22T07:22:31;100229.41;;;17.91;32.44
19150;BME280;9707;49.158;8.632;2023-02-22T07:24:56;100236.97;;;17.86;32.67
19150;BME280;9707;49.158;8.632;2023-02-22T07:27:22;100238.16;;;17.82;32.79
19150;BME280;9707;49.158;8.632;2023-02-22T07:29:47;100240.19;;;17.78;32.81
19150;BME280;9707;49.158;8.632;2023-02-22T07:32:12;100234.16;;;17.75;32.87
19150;BME280;9707;49.158;8.632;2023-02-22T07:34:40;100234.38;;;17.72;33.11
19150;BME280;9707;49.158;8.632;2023-02-22T07:37:06;100241.72;;;17.70;33.04
19150;BME280;9707;49.158;8.632;2023-02-22T07:39:31;100236.53;;;17.67;33.18
19150;BME280;9707;49.158;8.632;2023-02-22T07:41:57;100233.09;;;17.65;33.23
19150;BME280;9707;49.158;8.632;2023-02-22T07:44:23;100241.28;;;17.63;33.34
19150;BME280;9707;49.158;8.632;2023-02-22T07:46:48;100244.06;;;17.62;33.31
19150;BME280;9707;49.158;8.632;2023-02-22T07:49:14;100230.72;;;17.60;33.32
19150;BME280;9707;49.158;8.632;2023-02-22T07:51:42;100228.13;;;17.59;33.88
19150;BME280;9707;49.158;8.632;2023-02-22T07:54:08;100229.66;;;17.63;34.97
19150;BME280;9707;49.158;8.632;2023-02-22T07:56:33;100229.97;;;17.71;34.58
19150;BME280;9707;49.158;8.632;2023-02-22T07:58:58;100232.44;;;17.74;34.37
19150;BME280;9707;49.158;8.632;2023-02-22T08:01:25;100223.19;;;17.78;34.55
19150;BME280;9707;49.158;8.632;2023-02-22T08:03:51;100222.84;;;17.82;34.62
19150;BME280;9707;49.158;8.632;2023-02-22T08:06:17;100231.56;;;17.86;34.51
19150;BME280;9707;49.158;8.632;2023-02-22T08:08:42;100225.00;;;17.90;35.14
19150;BME280;9707;49.158;8.632;2023-02-22T08:11:08;100223.81;;;17.94;34.94
19150;BME280;9707;49.158;8.632;2023-02-22T08:13:33;100213.78;;;17.96;34.68
19150;BME280;9707;49.158;8.632;2023-02-22T08:15:58;100210.00;;;17.98;34.88
19150;BME280;9707;49.158;8.632;2023-02-22T08:18:24;100207.94;;;18.02;34.66
19150;BME280;9707;49.158;8.632;2023-02-22T08:20:50;100211.31;;;18.05;34.77
19150;BME280;9707;49.158;8.632;2023-02-22T08:23:17;100205.91;;;18.05;34.33
19150;BME280;9707;49.158;8.632;2023-02-22T08:25:42;100212.50;;;18.01;34.16
19150;BME280;9707;49.158;8.632;2023-02-22T08:28:11;100217.34;;;17.96;34.36
19150;BME280;9707;49.158;8.632;2023-02-22T08:30:38;100222.94;;;17.93;34.40
19150;BME280;9707;49.158;8.632;2023-02-22T08:33:04;100219.59;;;17.90;34.50
19150;BME280;9707;49.158;8.632;2023-02-22T08:35:31;100216.19;;;17.88;34.67
19150;BME280;9707;49.158;8.632;2023-02-22T08:37:59;100213.59;;;17.86;34.74
19150;BME280;9707;49.158;8.632;2023-02-22T08:40:26;100218.19;;;17.84;34.74
19150;BME280;9707;49.158;8.632;2023-02-22T08:42:53;100207.22;;;17.87;35.66
19150;BME280;9707;49.158;8.632;2023-02-22T08:45:18;100205.94;;;17.93;35.73
19150;BME280;9707;49.158;8.632;2023-02-22T08:47:44;100215.41;;;17.98;35.45
19150;BME280;9707;49.158;8.632;2023-02-22T08:50:21;100201.47;;;18.04;35.40
19150;BME280;9707;49.158;8.632;2023-02-22T08:52:50;100213.66;;;18.10;35.35
19150;BME280;9707;49.158;8.632;2023-02-22T08:55:21;100212.47;;;18.14;35.38
19150;BME280;9707;49.158;8.632;2023-02-22T08:57:46;100215.78;;;18.17;35.50
19150;BME280;9707;49.158;8.632;2023-02-22T09:00:12;100213.72;;;18.21;35.19
19150;BME280;9707;49.158;8.632;2023-02-22T09:02:39;100215.34;;;18.23;35.23
19150;BME280;9707;49.158;8.632;2023-02-22T09:05:05;100214.25;;;18.26;35.15
19150;BME280;9707;49.158;8.632;2023-02-22T09:07:31;100214.06;;;18.29;35.06
19150;BME280;9707;49.158;8.632;2023-02-22T09:09:56;100212.97;;;18.31;35.33
19150;BME280;9707;49.158;8.632;2023-02-22T09:12:21;100210.94;;;18.35;35.36
19150;BME280;9707;49.158;8.632;2023-02-22T09:14:47;100210.84;;;18.36;35.39
19150;BME280;9707;49.158;8.632;2023-02-22T09:17:12;100211.47;;;18.40;35.44
19150;BME280;9707;49.158;8.632;2023-02-22T09:19:37;100207.56;;;18.44;35.46
19150;BME280;9707;49.158;8.632;2023-02-22T09:22:03;100199.13;;;18.48;35.46
19150;BME280;9707;49.158;8.632;2023-02-22T09:24:28;100192.66;;;18.51;35.25
19150;BME280;9707;49.158;8.632;2023-02-22T09:26:53;100193.38;;;18.53;35.14
19150;BME280;9707;49.158;8.632;2023-02-22T09:29:24;100196.75;;;18.56;35.31
19150;BME280;9707;49.158;8.632;2023-02-22T09:31:51;100201.88;;;18.59;35.19
19150;BME280;9707;49.158;8.632;2023-02-22T09:34:18;100199.81;;;18.63;35.22
19150;BME280;9707;49.158;8.632;2023-02-22T09:36:45;100199.69;;;18.64;35.11
19150;BME280;9707;49.158;8.632;2023-02-22T09:39:12;100193.22;;;18.67;35.05
19150;BME280;9707;49.158;8.632;2023-02-22T09:42:02;100193.84;;;18.70;34.97
19150;BME280;9707;49.158;8.632;2023-02-22T09:44:47;100183.94;;;18.71;35.17
19150;BME280;9707;49.158;8.632;2023-02-22T09:47:18;100185.63;;;18.72;35.17
19150;BME280;9707;49.158;8.632;2023-02-22T09:50:06;100178.31;;;18.74;35.06
19150;BME280;9707;49.158;8.632;2023-02-22T09:52:58;100183.47;;;18.77;35.36
19150;BME280;9707;49.158;8.632;2023-02-22T09:55:33;100185.94;;;18.80;35.02
19150;BME280;9707;49.158;8.632;2023-02-22T09:58:05;100181.28;;;18.82;35.28
19150;BME280;9707;49.158;8.632;2023-02-22T10:00:36;100175.66;;;18.85;35.22
19150;BME280;9707;49.158;8.632;2023-02-22T10:03:23;100171.75;;;18.89;35.18
19150;BME280;9707;49.158;8.632;2023-02-22T10:08:28;100166.09;;;18.92;35.25
19150;BME280;9707;49.158;8.632;2023-02-22T10:17:03;100163.06;;;18.96;35.26
19150;BME280;9707;49.158;8.632;2023-02-22T10:20:00;100161.09;;;18.98;35.13
19150;BME280;9707;49.158;8.632;2023-02-22T10:25:19;100164.31;;;19.03;35.10
19150;BME280;9707;49.158;8.632;2023-02-22T10:27:58;100157.81;;;19.06;35.13
19150;BME280;9707;49.158;8.632;2023-02-22T10:30:33;100162.00;;;19.10;35.02
19150;BME280;9707;49.158;8.632;2023-02-22T10:33:20;100164.44;;;19.13;34.92
19150;BME280;9707;49.158;8.632;2023-02-22T10:35:46;100162.50;;;19.15;34.83
19150;BME280;9707;49.158;8.632;2023-02-22T10:38:18;100159.66;;;19.16;35.23
19150;BME280;9707;49.158;8.632;2023-02-22T10:40:55;100155.75;;;19.20;35.29
19150;BME280;9707;49.158;8.632;2023-02-22T10:43:23;100161.81;;;19.24;34.85
19150;BME280;9707;49.158;8.632;2023-02-22T10:45:51;100157.16;;;19.26;34.47
19150;BME280;9707;49.158;8.632;2023-02-22T10:48:20;100155.97;;;19.30;34.20
19150;BME280;9707;49.158;8.632;2023-02-22T10:50:47;100156.78;;;19.30;33.98
19150;BME280;9707;49.158;8.632;2023-02-22T10:53:14;100153.97;;;19.32;34.07
19150;BME280;9707;49.158;8.632;2023-02-22T10:58:54;100157.41;;;19.34;34.09
19150;BME280;9707;49.158;8.632;2023-02-22T11:01:36;100153.75;;;19.35;33.86
19150;BME280;9707;49.158;8.632;2023-02-22T11:04:13;100165.41;;;19.35;33.67
19150;BME280;9707;49.158;8.632;2023-02-22T11:06:42;100149.19;;;19.35;33.88
19150;BME280;9707;49.158;8.632;2023-02-22T11:09:19;100160.75;;;19.37;33.85
19150;BME280;9707;49.158;8.632;2023-02-22T11:11:49;100143.56;;;19.38;33.88
19150;BME280;9707;49.158;8.632;2023-02-22T11:14:30;100146.16;;;19.40;33.67
19150;BME280;9707;49.158;8.632;2023-02-22T11:16:57;100140.59;;;19.41;33.63
19150;BME280;9707;49.158;8.632;2023-02-22T11:19:25;100145.88;;;19.43;33.60
19150;BME280;9707;49.158;8.632;2023-02-22T11:21:57;100143.94;;;19.45;33.59
19150;BME280;9707;49.158;8.632;2023-02-22T11:24:24;100139.38;;;19.45;33.41
19150;BME280;9707;49.158;8.632;2023-02-22T11:27:00;100127.75;;;19.45;33.21
19150;BME280;9707;49.158;8.632;2023-02-22T11:29:31;100127.75;;;19.45;33.58
19150;BME280;9707;49.158;8.632;2023-02-22T11:31:57;100123.19;;;19.45;33.36
19150;BME280;9707;49.158;8.632;2023-02-22T11:34:30;100125.03;;;19.45;33.35
19150;BME280;9707;49.158;8.632;2023-02-22T11:37:14;100118.66;;;19.46;33.39
19150;BME280;9707;49.158;8.632;2023-02-22T11:39:39;100113.97;;;19.48;33.55
19150;BME280;9707;49.158;8.632;2023-02-22T11:42:23;100116.44;;;19.51;33.60
19150;BME280;9707;49.158;8.632;2023-02-22T11:45:09;100103.66;;;19.53;33.71
19150;BME280;9707;49.158;8.632;2023-02-22T11:47:58;100103.44;;;19.56;33.61
19150;BME280;9707;49.158;8.632;2023-02-22T11:53:16;100090.53;;;19.59;33.70
19150;BME280;9707;49.158;8.632;2023-02-22T11:56:09;100096.44;;;19.64;33.59
19150;BME280;9707;49.158;8.632;2023-02-22T11:58:48;100089.91;;;19.67;33.70
19150;BME280;9707;49.158;8.632;2023-02-22T12:02:16;100089.69;;;19.70;33.72
19150;BME280;9707;49.158;8.632;2023-02-22T12:10:15;100070.25;;;19.76;33.90
19150;BME280;9707;49.158;8.632;2023-02-22T12:15:24;100072.47;;;19.82;33.74
19150;BME280;9707;49.158;8.632;2023-02-22T12:20:57;100074.53;;;19.89;33.96
19150;BME280;9707;49.158;8.632;2023-02-22T12:23:44;100069.72;;;19.93;33.92
19150;BME280;9707;49.158;8.632;2023-02-22T12:26:15;100064.09;;;19.96;33.80
19150;BME280;9707;49.158;8.632;2023-02-22T12:33:50;100062.09;;;19.98;33.26
19150;BME280;9707;49.158;8.632;2023-02-22T12:36:21;100060.50;;;19.95;33.26
19150;BME280;9707;49.158;8.632;2023-02-22T12:38:54;100059.53;;;19.96;33.33
19150;BME280;9707;49.158;8.632;2023-02-22T12:41:36;100062.09;;;19.98;32.86
19150;BME280;9707;49.158;8.632;2023-02-22T12:44:13;100060.13;;;20.00;32.95
19150;BME280;9707;49.158;8.632;2023-02-22T12:46:45;100064.41;;;20.02;33.09
19150;BME280;9707;49.158;8.632;2023-02-22T12:49:39;100057.06;;;20.04;32.61
19150;BME280;9707;49.158;8.632;2023-02-22T12:52:14;100053.34;;;20.05;32.55
19150;BME280;9707;49.158;8.632;2023-02-22T12:54:51;100060.41;;;20.08;32.29
19150;BME280;9707;49.158;8.632;2023-02-22T13:00:26;100052.03;;;20.11;32.78
19150;BME280;9707;49.158;8.632;2023-02-22T13:03:01;100054.75;;;20.11;32.23
19150;BME280;9707;49.158;8.632;2023-02-22T13:05:33;100042.94;;;20.12;32.29
19150;BME280;9707;49.158;8.632;2023-02-22T13:08:07;100044.53;;;20.14;32.28
19150;BME280;9707;49.158;8.632;2023-02-22T13:11:00;100045.25;;;20.16;32.29
19150;BME280;9707;49.158;8.632;2023-02-22T13:19:06;100035.03;;;20.20;32.11
19150;BME280;9707;49.158;8.632;2023-02-22T13:21:55;100042.19;;;20.21;31.95
19150;BME280;9707;49.158;8.632;2023-02-22T13:24:27;100040.19;;;20.23;32.06
19150;BME280;9707;49.158;8.632;2023-02-22T13:27:14;100044.47;;;20.25;31.74
19150;BME280;9707;49.158;8.632;2023-02-22T13:29:46;100039.06;;;20.25;31.78
19150;BME280;9707;49.158;8.632;2023-02-22T13:32:17;100043.38;;;20.28;31.88
19150;BME280;9707;49.158;8.632;2023-02-22T13:34:54;100032.53;;;20.28;31.84
19150;BME280;9707;49.158;8.632;2023-02-22T13:45:49;100030.31;;;20.33;31.64
19150;BME280;9707;49.158;8.632;2023-02-22T13:48:47;100030.06;;;20.36;31.51
19150;BME280;9707;49.158;8.632;2023-02-22T13:52:17;100023.53;;;20.38;31.52
19150;BME280;9707;49.158;8.632;2023-02-22T13:56:58;100020.44;;;20.43;31.48
19150;BME280;9707;49.158;8.632;2023-02-22T13:59:33;100016.72;;;20.44;31.51
19150;BME280;9707;49.158;8.632;2023-02-22T14:02:01;100017.47;;;20.46;31.43
19150;BME280;9707;49.158;8.632;2023-02-22T14:07:02;100011.78;;;20.49;31.16
19150;BME280;9707;49.158;8.632;2023-02-22T14:09:47;100017.91;;;20.51;31.11
19150;BME280;9707;49.158;8.632;2023-02-22T14:17:36;100008.84;;;20.52;30.69
19150;BME280;9707;49.158;8.632;2023-02-22T14:20:24;100020.38;;;20.54;30.82
19150;BME280;9707;49.158;8.632;2023-02-22T14:22:55;100018.66;;;20.53;30.57
19150;BME280;9707;49.158;8.632;2023-02-22T14:25:39;100012.38;;;20.52;30.58
19150;BME280;9707;49.158;8.632;2023-02-22T14:28:08;100007.84;;;20.53;30.89
19150;BME280;9707;49.158;8.632;2023-02-22T14:31:13;100014.97;;;20.54;30.78
19150;BME280;9707;49.158;8.632;2023-02-22T14:36:24;100018.53;;;20.54;30.81
19150;BME280;9707;49.158;8.632;2023-02-22T14:38:51;100012.25;;;20.54;30.79
19150;BME280;9707;49.158;8.632;2023-02-22T14:41:21;100015.69;;;20.56;30.93